Andrew Scott

Chefscout - Harrogate Town
20 Jan 2028
Donnerstag
Verarbeitung

Persönlichkeit

Anpassungsfähigkeit (6) Ehrgeiz (10) Kontroverse (1) Loyalität (3) Druck (17) Professionalität (5) Fairness (8) Temperament (16)

Profil

Trainerstil Demokratisch
Lizenz Kontinentale C
Entschlossenheit 10
Menschenführung 3
Motivation 7
Disziplin 5
Arbeitszufriedenheit
100%
Ermüdung
0%
Rolle Chefscout
Gehalt 18.9K p/W
Vertrag 14.03.2028

Leistung

Verhalten Gut
Trainingseffektivität
28%
Spielerentwicklung
40%
Verletzungsprävention
20%
Taktische Umsetzung
30%

Letzte Ereignisse

Vertragsverhandlung begonnen jetzt
Nimmt an Fortbildung teil jetzt
Nahm an einer Scouting-Besprechung teil jetzt
Vertragsverhandlung begonnen jetzt
Nimmt an Fortbildung teil jetzt
Nimmt an Fortbildung teil 7T her
Vertragsverhandlung begonnen 7T her
Nimmt an Fortbildung teil 7T her

Aktuell beobachtet

91
Spieler Verein Status Fähigkeit Vertrauen Beobachtet Zuletzt beobachtet Letzte Stimme
Dan Sassi Bradford City Aktiv 100 / 84 48% 1 01.01.2028 -
Kieron Morris Oldham Athletic Aktiv 99 / 84 44% 1 26.07.2027 -
Dodô Exeter City Aktiv 89 / 88 44% 1 05.07.2027 -
Abu Kamara Portsmouth Aktiv 131 / 120 40% 2 29.05.2027 -
Kelly Saravanan Salford City Aktiv 103 / 113 40% 1 29.05.2027 -
Sam Nombe Milton Keynes Dons Aktiv 97 / 102 40% 5 25.05.2027 -
Yaw Mensah Hasaacas Aktiv 105 / 82 40% 4 25.05.2027 -
Christian Saydee Wigan Athletic Aktiv 112 / 121 40% 2 23.05.2027 -
Iwan Morgan Grimsby Town Aktiv 97 / 115 40% 4 22.05.2027 -
Bradley Fink Wycombe Wanderers Aktiv 101 / 114 40% 1 21.05.2027 -
Gladson Paintsil Wa All Stars Aktiv 106 / 81 40% 4 18.05.2027 -
Lewis Morgan SuperSport United Aktiv 111 / 117 40% 6 16.05.2027 -
Callum Stead Barnet Aktiv 78 / 87 40% 4 13.05.2027 -
Josh Koroma Leyton Orient Aktiv 96 / 102 40% 5 11.05.2027 -
Louis Appéré Cambridge United Aktiv 99 / 104 40% 2 11.05.2027 -
Bismark Asante Ashanti Gold Aktiv 91 / 103 40% 2 10.05.2027 -
Harry Leonard Peterborough United Aktiv 118 / 119 40% 1 10.05.2027 -
Alassana Jatta Notts County Aktiv 93 / 110 40% 1 09.05.2027 -
Fortune Bassey Djoliba Aktiv 91 / 92 40% 3 07.05.2027 -
Kwame Opoku Asante Kotoko Aktiv 94 / 96 40% 2 06.05.2027 -
Niall Ennis Blackpool Aktiv 122 / 100 40% 5 05.05.2027 -
Jayden Wareham Barnet Aktiv 115 / 103 40% 2 02.05.2027 -
Themba Ngcobo SuperSport United Aktiv 138 / 122 40% 8 28.04.2027 -
Kelvin Obeng Medeama Aktiv 86 / 73 40% 3 26.04.2027 -
Kwadwo Obeng Junior Heart of Lions Aktiv 79 / 92 40% 1 26.04.2027 -
Moussa Dembélé CR Belouizdad Aktiv 125 / 119 40% 2 25.04.2027 -
Kyle Wootton Stockport County Aktiv 117 / 111 40% 3 22.04.2027 -
Friday Ubong Ashanti Gold Aktiv 82 / 86 40% 2 20.04.2027 -
Aaron Collins Milton Keynes Dons Aktiv 112 / 106 40% 2 18.04.2027 -
Etiosa Ighodaro Kaizer Chiefs Aktiv 103 / 99 40% 6 16.04.2027 -
Stephen Humphrys Bradford City Aktiv 100 / 97 40% 3 14.04.2027 -
Jonathan Gyan Liberty Professionals Aktiv 114 / 100 40% 2 05.04.2027 -
Lewis McCann Fleetwood Town Aktiv 91 / 99 40% 1 05.04.2027 -
Mandla Mahlangu Ajax Cape Town Aktiv 97 / 103 40% 4 01.04.2027 -
Dean Erasmus Platinum Stars Aktiv 102 / 74 40% 1 01.04.2027 -
Oto John ES Mostaganem Aktiv 110 / 107 40% 3 28.03.2027 -
Mees Rijks Bristol Rovers Aktiv 101 / 115 40% 3 28.03.2027 -
Edarlyn Reyes Arsenal Tula Aktiv 94 / 96 40% 4 26.03.2027 -
Bruno Gomes Valletta Aktiv 112 / 107 40% 3 25.03.2027 -
Isaac Essien WAFA Aktiv 115 / 81 40% 3 20.03.2027 -
Robert Murić Floriana Aktiv 103 / 95 40% 2 14.03.2027 -
Martin Sekulić Ural Aktiv 129 / 94 40% 4 12.03.2027 -
Thomas Agyepong Great Olympics Aktiv 118 / 101 40% 1 12.03.2027 -
Ronan Hale Gillingham Aktiv 101 / 107 40% 1 11.03.2027 -
Seidu Basit Aigle Royal de Moungo Aktiv 75 / 79 40% 1 07.03.2027 -
Mohammed Yahaya Great Olympics Aktiv 66 / 95 40% 2 06.03.2027 -
Daouda Sidibé Aduana Stars Aktiv 97 / 88 40% 2 05.03.2027 -
Bojan Radulović Huddersfield Town Aktiv 126 / 109 40% 1 03.03.2027 -
Lamine Guèye Barrow AFC Aktiv 109 / 103 40% 3 25.02.2027 -
Robert Mizo Ashanti Gold Aktiv 109 / 100 40% 2 24.02.2027 -
Tyreece Simpson Maritzburg United Aktiv 69 / 99 40% 1 24.02.2027 -
Yeangel Montero Naxxar Lions Aktiv 99 / 110 40% 2 23.02.2027 -
Rui Costa Port Vale Aktiv 106 / 110 40% 1 19.02.2027 -
Harry Cornick AFC Wimbledon Aktiv 115 / 111 40% 1 16.02.2027 -
Oleksii Hutsuliak Polissia Aktiv 126 / 119 40% 1 16.02.2027 -
Victor Adeboyejo Ismaily Aktiv 92 / 112 40% 2 14.02.2027 -
Samuel Tetteh Ashanti Gold Aktiv 115 / 116 40% 3 11.02.2027 -
Sibusiso Tshabalala Polokwane City Aktiv 70 / 83 40% 2 09.02.2027 -
Danyil Alefirenko Chornomorets Aktiv 109 / 108 40% 1 07.02.2027 -
Jerome Karelse Golden Arrows Aktiv 112 / 105 40% 2 05.02.2027 -
Malik Mothersille Stockport County Aktiv 100 / 118 40% 1 25.01.2027 -
Kenan Dervišagić Floriana Aktiv 90 / 92 40% 2 25.12.2026 -
Israel Emmanuel Hamrun Spartans Aktiv 83 / 76 40% 1 18.12.2026 -
Agustín Módica Gimnasia y Esgrima Aktiv 119 / 112 40% 2 15.12.2026 -
Bongani Mothiba SuperSport United Aktiv 76 / 92 40% 1 12.12.2026 -
Samuel Anakwe Remo Stars Aktiv 75 / 88 40% 2 08.12.2026 -
Timothy Zechariah Rivers United Aktiv 96 / 104 40% 1 02.12.2026 -
Justice Figuareido Chippa United Aktiv 95 / 73 40% 2 12.11.2026 -
Alexander Díaz Deportivo Riestra Aktiv 106 / 133 40% 2 01.11.2026 -
Elijah Adebayo Luton Town Aktiv 111 / 121 40% 1 31.10.2026 -
Chineme Chinonso Ikorodu City Aktiv 82 / 85 40% 1 25.10.2026 -
Vinko Rozić Istra 1961 Aktiv 113 / 135 40% 1 22.10.2026 -
Emiliano Marcondes Zlin Aktiv 89 / 96 40% 1 20.10.2026 -
Jeremy Ebobisse Los Angeles Football Club Aktiv 111 / 133 40% 2 17.10.2026 -
Derrick Otanga Kakamega Homeboyz Aktiv 103 / 107 40% 1 08.10.2026 -
Brayan León Mamelodi Sundowns Aktiv 121 / 123 40% 1 08.10.2026 -
Emmanuel Sabbi Vancouver Whitecaps Aktiv 110 / 123 40% 2 06.10.2026 -
Mauro Valiente Estudiantes Aktiv 121 / 128 40% 1 02.10.2026 -
Tai Baribo DC United Aktiv 112 / 131 40% 1 01.10.2026 -
Armindo Sieb Los Angeles Football Club Aktiv 138 / 130 40% 1 01.10.2026 -
Shuaibu Ibrahim Wikki Tourists Aktiv 93 / 106 40% 1 29.09.2026 -
Nəriman Axundzadə Columbus Crew Aktiv 123 / 140 40% 1 25.09.2026 -
Ramiro Ruiz Rodríguez Atlético Tucumán Aktiv 107 / 104 40% 1 23.09.2026 -
Okardi Inikurogha Bayelsa United Aktiv 86 / 94 40% 1 18.09.2026 -
Alex Mighten San Diego Football Club Aktiv 96 / 107 40% 1 18.09.2026 -
Maclyn Biokpo Jenewari Rivers United Aktiv 79 / 112 40% 1 14.09.2026 -
Fernando Mimbacas Juventud Aktiv 91 / 103 40% 1 12.09.2026 -
Emiliano Saliadarre Miramar Misiones Aktiv 109 / 112 40% 1 10.09.2026 -
Josephat Lopaga Kakamega Homeboyz Aktiv 85 / 96 40% 1 08.09.2026 -
Michael Okoro Katsina United Aktiv 70 / 87 40% 1 07.09.2026 -
Adrian Akande Colchester United Aktiv 76 / 98 44% 1 24.08.2026 -